sensor_id;sensor_type;location;lat;lon;timestamp;pressure;altitude;pressure_sealevel;temperature;humidity
48390;BME280;34643;47.964;7.982;2023-08-06T00:02:52;96093.19;;;20.66;52.33
48390;BME280;34643;47.964;7.982;2023-08-06T00:07:52;96086.28;;;20.65;52.39
48390;BME280;34643;47.964;7.982;2023-08-06T00:12:53;96093.31;;;20.65;52.44
48390;BME280;34643;47.964;7.982;2023-08-06T00:17:53;96081.19;;;20.64;52.49
48390;BME280;34643;47.964;7.982;2023-08-06T00:22:53;96063.66;;;20.64;52.59
48390;BME280;34643;47.964;7.982;2023-08-06T00:27:54;96062.00;;;20.63;52.59
48390;BME280;34643;47.964;7.982;2023-08-06T00:32:54;96068.91;;;20.64;52.66
48390;BME280;34643;47.964;7.982;2023-08-06T00:37:55;96047.94;;;20.64;52.76
48390;BME280;34643;47.964;7.982;2023-08-06T00:42:56;96051.53;;;20.63;52.77
48390;BME280;34643;47.964;7.982;2023-08-06T00:47:56;96055.09;;;20.62;52.80
48390;BME280;34643;47.964;7.982;2023-08-06T00:52:56;96047.38;;;20.61;52.90
48390;BME280;34643;47.964;7.982;2023-08-06T00:57:57;96043.00;;;20.61;52.83
48390;BME280;34643;47.964;7.982;2023-08-06T01:02:57;96026.41;;;20.61;52.84
48390;BME280;34643;47.964;7.982;2023-08-06T01:08:11;96021.16;;;20.61;52.89
48390;BME280;34643;47.964;7.982;2023-08-06T01:18:17;96012.47;;;20.60;52.91
48390;BME280;34643;47.964;7.982;2023-08-06T01:23:18;96017.84;;;20.59;52.92
48390;BME280;34643;47.964;7.982;2023-08-06T01:33:32;96006.56;;;20.58;52.81
48390;BME280;34643;47.964;7.982;2023-08-06T01:38:32;96007.50;;;20.57;52.75
48390;BME280;34643;47.964;7.982;2023-08-06T01:43:32;95996.34;;;20.55;52.79
48390;BME280;34643;47.964;7.982;2023-08-06T01:48:33;96006.03;;;20.55;52.69
48390;BME280;34643;47.964;7.982;2023-08-06T01:53:33;95990.44;;;20.53;52.71
48390;BME280;34643;47.964;7.982;2023-08-06T01:58:33;95997.34;;;20.54;52.57
48390;BME280;34643;47.964;7.982;2023-08-06T02:03:34;95998.47;;;20.51;52.54
48390;BME280;34643;47.964;7.982;2023-08-06T02:08:34;95990.75;;;20.50;52.48
48390;BME280;34643;47.964;7.982;2023-08-06T02:13:34;95982.88;;;20.50;52.41
48390;BME280;34643;47.964;7.982;2023-08-06T02:18:35;95978.34;;;20.52;52.53
48390;BME280;34643;47.964;7.982;2023-08-06T02:23:35;95986.34;;;20.50;52.41
48390;BME280;34643;47.964;7.982;2023-08-06T02:28:35;95996.00;;;20.50;52.60
48390;BME280;34643;47.964;7.982;2023-08-06T02:33:36;96003.84;;;20.50;52.61
48390;BME280;34643;47.964;7.982;2023-08-06T02:38:36;95996.00;;;20.50;52.72
48390;BME280;34643;47.964;7.982;2023-08-06T02:43:36;96002.06;;;20.50;52.75
48390;BME280;34643;47.964;7.982;2023-08-06T02:48:37;96019.44;;;20.51;52.87
48390;BME280;34643;47.964;7.982;2023-08-06T02:53:37;96026.50;;;20.51;52.97
48390;BME280;34643;47.964;7.982;2023-08-06T02:58:41;96028.28;;;20.50;53.09
48390;BME280;34643;47.964;7.982;2023-08-06T03:03:51;96037.94;;;20.50;53.13
48390;BME280;34643;47.964;7.982;2023-08-06T03:08:58;96044.84;;;20.51;53.17
48390;BME280;34643;47.964;7.982;2023-08-06T03:13:59;96041.56;;;20.49;53.07
48390;BME280;34643;47.964;7.982;2023-08-06T03:19:01;96029.41;;;20.48;53.08
48390;BME280;34643;47.964;7.982;2023-08-06T03:24:02;96024.81;;;20.50;53.05
48390;BME280;34643;47.964;7.982;2023-08-06T03:29:06;96015.34;;;20.49;52.96
48390;BME280;34643;47.964;7.982;2023-08-06T03:34:08;96025.00;;;20.48;52.96
48390;BME280;34643;47.964;7.982;2023-08-06T03:39:09;96026.63;;;20.49;52.96
48390;BME280;34643;47.964;7.982;2023-08-06T03:44:10;96007.47;;;20.49;52.87
48390;BME280;34643;47.964;7.982;2023-08-06T03:49:11;96008.13;;;20.51;52.95
48390;BME280;34643;47.964;7.982;2023-08-06T03:54:11;96002.91;;;20.51;52.97
48390;BME280;34643;47.964;7.982;2023-08-06T03:59:11;96015.03;;;20.52;52.96
48390;BME280;34643;47.964;7.982;2023-08-06T04:04:12;96011.72;;;20.50;53.01
48390;BME280;34643;47.964;7.982;2023-08-06T04:09:12;96014.53;;;20.48;53.05
48390;BME280;34643;47.964;7.982;2023-08-06T04:14:13;96017.81;;;20.50;52.97
48390;BME280;34643;47.964;7.982;2023-08-06T04:19:13;96021.53;;;20.48;53.00
48390;BME280;34643;47.964;7.982;2023-08-06T04:24:15;96034.78;;;20.46;52.89
48390;BME280;34643;47.964;7.982;2023-08-06T04:29:15;96021.03;;;20.44;52.76
48390;BME280;34643;47.964;7.982;2023-08-06T04:34:16;96021.88;;;20.45;52.77
48390;BME280;34643;47.964;7.982;2023-08-06T04:39:16;96017.44;;;20.45;52.62
48390;BME280;34643;47.964;7.982;2023-08-06T04:44:16;96022.81;;;20.44;52.62
48390;BME280;34643;47.964;7.982;2023-08-06T04:49:17;96015.91;;;20.43;52.38
48390;BME280;34643;47.964;7.982;2023-08-06T04:54:17;96016.09;;;20.41;52.48
48390;BME280;34643;47.964;7.982;2023-08-06T04:59:18;96013.78;;;20.38;52.39
48390;BME280;34643;47.964;7.982;2023-08-06T05:04:18;96021.50;;;20.40;52.46
48390;BME280;34643;47.964;7.982;2023-08-06T05:09:18;96037.22;;;20.40;52.31
48390;BME280;34643;47.964;7.982;2023-08-06T05:14:20;96024.25;;;20.38;52.40
48390;BME280;34643;47.964;7.982;2023-08-06T05:19:20;96033.75;;;20.39;52.44
48390;BME280;34643;47.964;7.982;2023-08-06T05:24:20;96028.06;;;20.44;52.51
48390;BME280;34643;47.964;7.982;2023-08-06T05:29:20;96038.56;;;20.44;52.43
48390;BME280;34643;47.964;7.982;2023-08-06T05:34:21;96033.59;;;20.41;52.38
48390;BME280;34643;47.964;7.982;2023-08-06T05:39:21;96039.16;;;20.38;52.49
48390;BME280;34643;47.964;7.982;2023-08-06T05:44:23;96045.75;;;20.42;52.53
48390;BME280;34643;47.964;7.982;2023-08-06T05:49:23;96054.56;;;20.41;52.46
48390;BME280;34643;47.964;7.982;2023-08-06T05:54:23;96066.88;;;20.40;52.53
48390;BME280;34643;47.964;7.982;2023-08-06T05:59:24;96064.38;;;20.39;52.63
48390;BME280;34643;47.964;7.982;2023-08-06T06:04:24;96062.75;;;20.38;52.84
48390;BME280;34643;47.964;7.982;2023-08-06T06:09:25;96050.19;;;20.41;52.86
48390;BME280;34643;47.964;7.982;2023-08-06T06:14:25;96075.53;;;20.41;52.94
48390;BME280;34643;47.964;7.982;2023-08-06T06:19:25;96069.94;;;20.36;52.83
48390;BME280;34643;47.964;7.982;2023-08-06T06:24:25;96076.31;;;20.33;52.74
48390;BME280;34643;47.964;7.982;2023-08-06T06:29:26;96084.69;;;20.37;52.79
48390;BME280;34643;47.964;7.982;2023-08-06T06:34:26;96088.59;;;20.32;52.81
48390;BME280;34643;47.964;7.982;2023-08-06T06:39:27;96097.41;;;20.31;52.89
48390;BME280;34643;47.964;7.982;2023-08-06T06:44:27;96106.41;;;20.29;52.71
48390;BME280;34643;47.964;7.982;2023-08-06T06:49:27;96105.03;;;20.25;52.62
48390;BME280;34643;47.964;7.982;2023-08-06T06:54:27;96119.28;;;20.22;52.47
48390;BME280;34643;47.964;7.982;2023-08-06T06:59:28;96104.81;;;20.18;52.42
48390;BME280;34643;47.964;7.982;2023-08-06T07:04:28;96116.94;;;20.19;52.55
48390;BME280;34643;47.964;7.982;2023-08-06T07:09:28;96119.56;;;20.19;52.34
48390;BME280;34643;47.964;7.982;2023-08-06T07:14:29;96118.06;;;20.17;52.34
48390;BME280;34643;47.964;7.982;2023-08-06T07:19:29;96117.22;;;20.16;52.35
48390;BME280;34643;47.964;7.982;2023-08-06T07:24:29;96117.38;;;20.14;52.49
48390;BME280;34643;47.964;7.982;2023-08-06T07:29:30;96133.09;;;20.14;52.31
48390;BME280;34643;47.964;7.982;2023-08-06T07:34:30;96143.75;;;20.13;52.24
48390;BME280;34643;47.964;7.982;2023-08-06T07:39:30;96149.81;;;20.13;52.22
48390;BME280;34643;47.964;7.982;2023-08-06T07:44:31;96150.91;;;20.11;52.22
48390;BME280;34643;47.964;7.982;2023-08-06T07:49:31;96143.03;;;20.11;52.25
48390;BME280;34643;47.964;7.982;2023-08-06T07:54:31;96149.94;;;20.12;52.23
48390;BME280;34643;47.964;7.982;2023-08-06T07:59:32;96150.91;;;20.11;52.21
48390;BME280;34643;47.964;7.982;2023-08-06T08:04:32;96156.31;;;20.09;52.24
48390;BME280;34643;47.964;7.982;2023-08-06T08:09:34;96163.31;;;20.09;52.23
48390;BME280;34643;47.964;7.982;2023-08-06T08:14:34;96159.88;;;20.08;52.20
48390;BME280;34643;47.964;7.982;2023-08-06T08:19:37;96159.06;;;20.08;52.24
48390;BME280;34643;47.964;7.982;2023-08-06T08:24:38;96173.94;;;20.07;52.15
48390;BME280;34643;47.964;7.982;2023-08-06T08:29:38;96189.66;;;20.07;52.27
48390;BME280;34643;47.964;7.982;2023-08-06T08:34:38;96183.59;;;20.07;52.28
48390;BME280;34643;47.964;7.982;2023-08-06T08:39:39;96182.94;;;20.05;52.29
48390;BME280;34643;47.964;7.982;2023-08-06T08:44:39;96192.59;;;20.04;52.22
48390;BME280;34643;47.964;7.982;2023-08-06T08:49:40;96187.50;;;20.03;52.29
48390;BME280;34643;47.964;7.982;2023-08-06T08:54:41;96195.50;;;20.01;52.23
48390;BME280;34643;47.964;7.982;2023-08-06T08:59:41;96184.06;;;20.02;52.33
48390;BME280;34643;47.964;7.982;2023-08-06T09:04:41;96191.22;;;20.00;52.25
48390;BME280;34643;47.964;7.982;2023-08-06T09:09:42;96199.06;;;20.00;52.30
48390;BME280;34643;47.964;7.982;2023-08-06T09:14:43;96211.22;;;20.01;52.36
48390;BME280;34643;47.964;7.982;2023-08-06T09:19:43;96224.44;;;20.00;52.26
48390;BME280;34643;47.964;7.982;2023-08-06T09:24:45;96238.53;;;19.99;52.35
48390;BME280;34643;47.964;7.982;2023-08-06T09:29:46;96229.81;;;19.98;52.36
48390;BME280;34643;47.964;7.982;2023-08-06T09:34:46;96223.78;;;19.98;52.25
48390;BME280;34643;47.964;7.982;2023-08-06T09:39:46;96242.94;;;19.98;52.50
48390;BME280;34643;47.964;7.982;2023-08-06T09:44:47;96236.88;;;19.98;52.35
48390;BME280;34643;47.964;7.982;2023-08-06T09:49:47;96248.16;;;19.98;52.40
48390;BME280;34643;47.964;7.982;2023-08-06T09:54:47;96256.16;;;19.97;52.33
48390;BME280;34643;47.964;7.982;2023-08-06T09:59:49;96249.28;;;19.96;52.35
48390;BME280;34643;47.964;7.982;2023-08-06T10:04:51;96257.16;;;19.96;52.31
48390;BME280;34643;47.964;7.982;2023-08-06T10:09:52;96258.09;;;19.94;52.35
48390;BME280;34643;47.964;7.982;2023-08-06T10:14:53;96271.19;;;19.94;52.27
48390;BME280;34643;47.964;7.982;2023-08-06T10:19:54;96262.38;;;19.96;52.37
48390;BME280;34643;47.964;7.982;2023-08-06T10:24:56;96258.25;;;19.93;52.22
48390;BME280;34643;47.964;7.982;2023-08-06T10:40:32;96268.03;;;19.91;52.10
48390;BME280;34643;47.964;7.982;2023-08-06T10:45:36;96264.59;;;19.90;52.31
48390;BME280;34643;47.964;7.982;2023-08-06T10:50:37;96274.09;;;19.91;52.21
48390;BME280;34643;47.964;7.982;2023-08-06T10:55:37;96267.22;;;19.90;52.18
48390;BME280;34643;47.964;7.982;2023-08-06T11:00:38;96268.19;;;19.89;52.09
48390;BME280;34643;47.964;7.982;2023-08-06T11:05:38;96287.34;;;19.90;52.19
48390;BME280;34643;47.964;7.982;2023-08-06T11:10:39;96277.03;;;19.88;52.06
48390;BME280;34643;47.964;7.982;2023-08-06T11:15:39;96295.34;;;19.88;52.21
48390;BME280;34643;47.964;7.982;2023-08-06T11:20:39;96306.78;;;19.87;52.27
48390;BME280;34643;47.964;7.982;2023-08-06T11:25:46;96323.31;;;19.88;52.24
48390;BME280;34643;47.964;7.982;2023-08-06T11:30:47;96306.78;;;19.87;52.30
48390;BME280;34643;47.964;7.982;2023-08-06T11:35:48;96327.59;;;19.89;52.19
48390;BME280;34643;47.964;7.982;2023-08-06T11:40:49;96332.84;;;19.89;52.35
48390;BME280;34643;47.964;7.982;2023-08-06T11:45:50;96340.69;;;19.89;52.56
48390;BME280;34643;47.964;7.982;2023-08-06T11:50:53;96345.81;;;19.90;52.59
48390;BME280;34643;47.964;7.982;2023-08-06T11:55:54;96333.66;;;19.89;52.73
48390;BME280;34643;47.964;7.982;2023-08-06T12:00:54;96333.66;;;19.89;52.75
48390;BME280;34643;47.964;7.982;2023-08-06T12:05:56;96335.31;;;19.90;52.83
48390;BME280;34643;47.964;7.982;2023-08-06T12:10:56;96338.75;;;19.91;52.70
48390;BME280;34643;47.964;7.982;2023-08-06T12:15:56;96339.56;;;19.91;52.82
48390;BME280;34643;47.964;7.982;2023-08-06T12:20:57;96339.56;;;19.91;52.83
48390;BME280;34643;47.964;7.982;2023-08-06T12:25:58;96348.41;;;19.90;53.00
48390;BME280;34643;47.964;7.982;2023-08-06T12:30:58;96353.78;;;19.89;53.03
48390;BME280;34643;47.964;7.982;2023-08-06T12:35:58;96357.38;;;19.88;53.11
48390;BME280;34643;47.964;7.982;2023-08-06T12:40:59;96373.94;;;19.88;53.01
48390;BME280;34643;47.964;7.982;2023-08-06T12:45:59;96372.13;;;19.89;53.11
48390;BME280;34643;47.964;7.982;2023-08-06T12:50:59;96356.41;;;19.89;53.08
48390;BME280;34643;47.964;7.982;2023-08-06T12:56:00;96366.06;;;19.88;53.11
48390;BME280;34643;47.964;7.982;2023-08-06T13:01:00;96380.25;;;19.86;53.06
48390;BME280;34643;47.964;7.982;2023-08-06T13:06:00;96415.97;;;19.87;53.06
48390;BME280;34643;47.964;7.982;2023-08-06T13:11:01;96407.28;;;19.86;53.20
48390;BME280;34643;47.964;7.982;2023-08-06T13:16:01;96417.78;;;19.86;53.05
48390;BME280;34643;47.964;7.982;2023-08-06T13:21:02;96421.88;;;19.89;53.13
48390;BME280;34643;47.964;7.982;2023-08-06T13:26:02;96422.84;;;19.88;53.16
48390;BME280;34643;47.964;7.982;2023-08-06T13:31:02;96428.78;;;19.90;53.26
48390;BME280;34643;47.964;7.982;2023-08-06T13:36:02;96422.56;;;19.91;53.26
48390;BME280;34643;47.964;7.982;2023-08-06T13:41:03;96434.97;;;19.89;53.33
48390;BME280;34643;47.964;7.982;2023-08-06T13:46:03;96435.81;;;19.89;53.26
48390;BME280;34643;47.964;7.982;2023-08-06T13:51:03;96429.88;;;19.87;53.35
48390;BME280;34643;47.964;7.982;2023-08-06T13:56:04;96436.09;;;19.86;53.28
48390;BME280;34643;47.964;7.982;2023-08-06T14:01:05;96429.19;;;19.85;53.23
48390;BME280;34643;47.964;7.982;2023-08-06T14:06:05;96437.06;;;19.85;53.20
48390;BME280;34643;47.964;7.982;2023-08-06T14:11:05;96452.91;;;19.84;53.04
48390;BME280;34643;47.964;7.982;2023-08-06T14:16:06;96448.66;;;19.83;53.07
48390;BME280;34643;47.964;7.982;2023-08-06T14:21:08;96444.34;;;19.82;52.84
48390;BME280;34643;47.964;7.982;2023-08-06T14:26:08;96450.53;;;19.81;52.85
48390;BME280;34643;47.964;7.982;2023-08-06T14:31:11;96444.34;;;19.82;52.76
48390;BME280;34643;47.964;7.982;2023-08-06T14:36:11;96473.97;;;19.82;52.75
48390;BME280;34643;47.964;7.982;2023-08-06T14:41:11;96508.03;;;19.82;52.73
48390;BME280;34643;47.964;7.982;2023-08-06T14:46:12;96518.50;;;19.82;52.71
48390;BME280;34643;47.964;7.982;2023-08-06T14:51:12;96517.69;;;19.82;52.79
48390;BME280;34643;47.964;7.982;2023-08-06T14:56:12;96514.25;;;19.81;52.82
48390;BME280;34643;47.964;7.982;2023-08-06T15:01:13;96526.50;;;19.81;52.76
48390;BME280;34643;47.964;7.982;2023-08-06T15:06:13;96531.03;;;19.79;52.89
48390;BME280;34643;47.964;7.982;2023-08-06T15:11:13;96525.69;;;19.80;52.80
48390;BME280;34643;47.964;7.982;2023-08-06T15:16:14;96515.34;;;19.79;52.65
48390;BME280;34643;47.964;7.982;2023-08-06T15:21:15;96520.56;;;19.79;52.68
48390;BME280;34643;47.964;7.982;2023-08-06T15:26:15;96530.22;;;19.78;52.63
48390;BME280;34643;47.964;7.982;2023-08-06T15:31:18;96535.59;;;19.77;52.72
48390;BME280;34643;47.964;7.982;2023-08-06T15:36:19;96553.09;;;19.76;52.58
48390;BME280;34643;47.964;7.982;2023-08-06T15:41:19;96555.03;;;19.74;52.57
48390;BME280;34643;47.964;7.982;2023-08-06T15:46:20;96583.84;;;19.74;52.47
48390;BME280;34643;47.964;7.982;2023-08-06T15:51:20;96587.38;;;19.73;52.42
48390;BME280;34643;47.964;7.982;2023-08-06T15:56:21;96590.97;;;19.72;52.25
48390;BME280;34643;47.964;7.982;2023-08-06T16:01:21;96594.53;;;19.71;52.24
48390;BME280;34643;47.964;7.982;2023-08-06T16:06:21;96591.09;;;19.70;52.13
48390;BME280;34643;47.964;7.982;2023-08-06T16:11:24;96595.38;;;19.71;52.26
48390;BME280;34643;47.964;7.982;2023-08-06T16:16:24;96590.25;;;19.70;52.09
48390;BME280;34643;47.964;7.982;2023-08-06T16:21:25;96595.50;;;19.70;51.92
48390;BME280;34643;47.964;7.982;2023-08-06T16:26:25;96594.81;;;19.68;51.86
48390;BME280;34643;47.964;7.982;2023-08-06T16:31:26;96601.72;;;19.69;51.95
48390;BME280;34643;47.964;7.982;2023-08-06T16:36:26;96602.66;;;19.68;51.92
48390;BME280;34643;47.964;7.982;2023-08-06T16:41:26;96595.78;;;19.67;51.76
48390;BME280;34643;47.964;7.982;2023-08-06T16:46:27;96596.03;;;19.64;51.69
48390;BME280;34643;47.964;7.982;2023-08-06T16:51:27;96603.19;;;19.62;51.49
48390;BME280;34643;47.964;7.982;2023-08-06T16:56:27;96621.66;;;19.60;51.38
48390;BME280;34643;47.964;7.982;2023-08-06T17:01:29;96632.81;;;19.62;51.45
48390;BME280;34643;47.964;7.982;2023-08-06T17:06:29;96655.56;;;19.62;51.54
48390;BME280;34643;47.964;7.982;2023-08-06T17:11:30;96678.16;;;19.63;51.42
48390;BME280;34643;47.964;7.982;2023-08-06T17:16:30;96671.97;;;19.64;51.56
48390;BME280;34643;47.964;7.982;2023-08-06T17:21:31;96669.34;;;19.64;51.55
48390;BME280;34643;47.964;7.982;2023-08-06T17:26:31;96681.47;;;19.65;51.59
48390;BME280;34643;47.964;7.982;2023-08-06T17:31:32;96672.66;;;19.66;51.69
48390;BME280;34643;47.964;7.982;2023-08-06T17:36:32;96675.28;;;19.66;51.79
48390;BME280;34643;47.964;7.982;2023-08-06T17:41:33;96680.50;;;19.66;51.84
48390;BME280;34643;47.964;7.982;2023-08-06T17:46:33;96677.06;;;19.65;51.95
48390;BME280;34643;47.964;7.982;2023-08-06T17:51:33;96672.66;;;19.66;51.94
48390;BME280;34643;47.964;7.982;2023-08-06T17:56:34;96663.41;;;19.62;51.94
48390;BME280;34643;47.964;7.982;2023-08-06T18:01:34;96669.34;;;19.64;51.94
48390;BME280;34643;47.964;7.982;2023-08-06T18:06:34;96677.91;;;19.66;52.01
48390;BME280;34643;47.964;7.982;2023-08-06T18:11:35;96683.25;;;19.64;51.92
48390;BME280;34643;47.964;7.982;2023-08-06T18:16:35;96690.28;;;19.64;51.99
48390;BME280;34643;47.964;7.982;2023-08-06T18:21:35;96679.69;;;19.65;51.96
48390;BME280;34643;47.964;7.982;2023-08-06T18:26:36;96684.94;;;19.65;52.05
48390;BME280;34643;47.964;7.982;2023-08-06T18:31:36;96685.75;;;19.66;52.17
48390;BME280;34643;47.964;7.982;2023-08-06T18:36:36;96680.50;;;19.66;52.22
48390;BME280;34643;47.964;7.982;2023-08-06T18:41:37;96696.22;;;19.66;52.08
48390;BME280;34643;47.964;7.982;2023-08-06T18:46:37;96699.66;;;19.66;52.23
48390;BME280;34643;47.964;7.982;2023-08-06T18:51:37;96706.69;;;19.66;52.28
48390;BME280;34643;47.964;7.982;2023-08-06T18:56:37;96708.38;;;19.67;52.08
48390;BME280;34643;47.964;7.982;2023-08-06T19:01:38;96710.13;;;19.66;52.29
48390;BME280;34643;47.964;7.982;2023-08-06T19:06:38;96716.22;;;19.67;52.36
48390;BME280;34643;47.964;7.982;2023-08-06T19:11:38;96713.59;;;19.67;52.36
48390;BME280;34643;47.964;7.982;2023-08-06T19:16:39;96711.00;;;19.67;52.44
48390;BME280;34643;47.964;7.982;2023-08-06T19:21:45;96721.47;;;19.67;52.62
48390;BME280;34643;47.964;7.982;2023-08-06T19:26:48;96718.00;;;19.66;52.61
48390;BME280;34643;47.964;7.982;2023-08-06T19:31:48;96719.78;;;19.66;52.54
48390;BME280;34643;47.964;7.982;2023-08-06T19:36:49;96716.34;;;19.65;52.70
48390;BME280;34643;47.964;7.982;2023-08-06T19:41:49;96718.97;;;19.65;52.65
48390;BME280;34643;47.964;7.982;2023-08-06T19:46:49;96717.28;;;19.64;52.83
48390;BME280;34643;47.964;7.982;2023-08-06T19:51:50;96719.09;;;19.64;52.65
48390;BME280;34643;47.964;7.982;2023-08-06T19:56:50;96722.53;;;19.64;52.67
48390;BME280;34643;47.964;7.982;2023-08-06T20:01:50;96732.19;;;19.64;52.78
48390;BME280;34643;47.964;7.982;2023-08-06T20:06:52;96733.00;;;19.64;52.67
48390;BME280;34643;47.964;7.982;2023-08-06T20:11:53;96741.00;;;19.63;52.71
48390;BME280;34643;47.964;7.982;2023-08-06T20:16:54;96740.16;;;19.62;52.62
48390;BME280;34643;47.964;7.982;2023-08-06T20:21:54;96742.91;;;19.61;52.64
48390;BME280;34643;47.964;7.982;2023-08-06T20:26:54;96763.84;;;19.61;52.67
48390;BME280;34643;47.964;7.982;2023-08-06T20:31:56;96768.16;;;19.62;52.60
48390;BME280;34643;47.964;7.982;2023-08-06T20:36:56;96776.25;;;19.59;52.63
48390;BME280;34643;47.964;7.982;2023-08-06T20:41:58;96774.56;;;19.57;52.48
48390;BME280;34643;47.964;7.982;2023-08-06T20:46:58;96765.78;;;19.59;52.55
48390;BME280;34643;47.964;7.982;2023-08-06T20:51:59;96760.66;;;19.57;52.46
48390;BME280;34643;47.964;7.982;2023-08-06T20:56:59;96764.25;;;19.56;52.55
48390;BME280;34643;47.964;7.982;2023-08-06T21:01:59;96766.03;;;19.55;52.54
48390;BME280;34643;47.964;7.982;2023-08-06T21:06:59;96772.13;;;19.56;52.50
48390;BME280;34643;47.964;7.982;2023-08-06T21:12:00;96768.75;;;19.54;52.75
48390;BME280;34643;47.964;7.982;2023-08-06T21:17:00;96785.31;;;19.54;52.56
48390;BME280;34643;47.964;7.982;2023-08-06T21:22:00;96793.31;;;19.53;52.51
48390;BME280;34643;47.964;7.982;2023-08-06T21:27:01;96798.66;;;19.51;52.54
48390;BME280;34643;47.964;7.982;2023-08-06T21:32:01;96797.00;;;19.50;52.39
48390;BME280;34643;47.964;7.982;2023-08-06T21:37:01;96796.16;;;19.50;52.38
48390;BME280;34643;47.964;7.982;2023-08-06T21:42:01;96806.75;;;19.48;52.24
48390;BME280;34643;47.964;7.982;2023-08-06T21:47:02;96816.53;;;19.46;52.16
48390;BME280;34643;47.964;7.982;2023-08-06T21:52:03;96829.63;;;19.46;52.09
48390;BME280;34643;47.964;7.982;2023-08-06T21:57:03;96833.19;;;19.45;52.02
48390;BME280;34643;47.964;7.982;2023-08-06T22:02:04;96835.09;;;19.43;51.92
48390;BME280;34643;47.964;7.982;2023-08-06T22:07:04;96824.63;;;19.43;51.87
48390;BME280;34643;47.964;7.982;2023-08-06T22:12:04;96851.06;;;19.40;51.83
48390;BME280;34643;47.964;7.982;2023-08-06T22:17:05;96842.25;;;19.41;51.61
48390;BME280;34643;47.964;7.982;2023-08-06T22:22:05;96838.00;;;19.40;51.76
48390;BME280;34643;47.964;7.982;2023-08-06T22:27:06;96839.88;;;19.38;51.60
48390;BME280;34643;47.964;7.982;2023-08-06T22:32:06;96838.09;;;19.38;51.52
48390;BME280;34643;47.964;7.982;2023-08-06T22:37:06;96837.25;;;19.38;51.42
48390;BME280;34643;47.964;7.982;2023-08-06T22:42:07;96834.78;;;19.36;51.40
48390;BME280;34643;47.964;7.982;2023-08-06T22:47:07;96838.34;;;19.35;51.43
48390;BME280;34643;47.964;7.982;2023-08-06T22:52:10;96835.72;;;19.35;51.34
48390;BME280;34643;47.964;7.982;2023-08-06T22:57:10;96829.81;;;19.33;51.09
48390;BME280;34643;47.964;7.982;2023-08-06T23:02:11;96828.97;;;19.33;51.12
48390;BME280;34643;47.964;7.982;2023-08-06T23:07:11;96827.31;;;19.32;51.03
48390;BME280;34643;47.964;7.982;2023-08-06T23:12:11;96831.72;;;19.31;51.06
48390;BME280;34643;47.964;7.982;2023-08-06T23:17:12;96830.88;;;19.31;50.82
48390;BME280;34643;47.964;7.982;2023-08-06T23:22:12;96824.00;;;19.30;50.78
48390;BME280;34643;47.964;7.982;2023-08-06T23:27:12;96828.41;;;19.29;50.67
48390;BME280;34643;47.964;7.982;2023-08-06T23:32:13;96831.13;;;19.28;50.79
48390;BME280;34643;47.964;7.982;2023-08-06T23:37:13;96828.53;;;19.28;50.63
48390;BME280;34643;47.964;7.982;2023-08-06T23:42:13;96830.28;;;19.27;50.62
48390;BME280;34643;47.964;7.982;2023-08-06T23:47:13;96834.69;;;19.27;50.54
48390;BME280;34643;47.964;7.982;2023-08-06T23:52:14;96827.78;;;19.26;50.62
48390;BME280;34643;47.964;7.982;2023-08-06T23:57:14;96831.38;;;19.25;50.56
